sensor_id;sensor_type;location;lat;lon;timestamp;temperature;humidity
78767;SHT31;68092;51.982;5.680;2023-03-23T00:00:17;14.5;67.4
78767;SHT31;68092;51.982;5.680;2023-03-23T00:02:50;14.5;67.2
78767;SHT31;68092;51.982;5.680;2023-03-23T00:05:21;14.5;67.6
78767;SHT31;68092;51.982;5.680;2023-03-23T00:07:50;14.5;67.0
78767;SHT31;68092;51.982;5.680;2023-03-23T00:10:22;14.5;66.8
78767;SHT31;68092;51.982;5.680;2023-03-23T00:12:53;14.5;66.7
78767;SHT31;68092;51.982;5.680;2023-03-23T00:15:26;14.5;66.9
78767;SHT31;68092;51.982;5.680;2023-03-23T00:17:58;14.5;66.8
78767;SHT31;68092;51.982;5.680;2023-03-23T00:20:30;14.5;66.4
78767;SHT31;68092;51.982;5.680;2023-03-23T00:23:05;14.5;66.7
78767;SHT31;68092;51.982;5.680;2023-03-23T00:25:35;14.5;66.7
78767;SHT31;68092;51.982;5.680;2023-03-23T00:28:04;14.5;66.7
78767;SHT31;68092;51.982;5.680;2023-03-23T00:30:34;14.5;66.7
78767;SHT31;68092;51.982;5.680;2023-03-23T00:33:04;14.6;66.6
78767;SHT31;68092;51.982;5.680;2023-03-23T00:35:33;14.6;66.3
78767;SHT31;68092;51.982;5.680;2023-03-23T00:38:04;14.6;66.6
78767;SHT31;68092;51.982;5.680;2023-03-23T00:40:35;14.6;66.2
78767;SHT31;68092;51.982;5.680;2023-03-23T00:43:07;14.6;66.7
78767;SHT31;68092;51.982;5.680;2023-03-23T00:45:41;14.6;66.3
78767;SHT31;68092;51.982;5.680;2023-03-23T00:48:15;14.6;66.8
78767;SHT31;68092;51.982;5.680;2023-03-23T00:50:46;14.6;67.0
78767;SHT31;68092;51.982;5.680;2023-03-23T00:53:17;14.6;67.1
78767;SHT31;68092;51.982;5.680;2023-03-23T00:55:48;14.6;67.2
78767;SHT31;68092;51.982;5.680;2023-03-23T00:58:18;14.6;67.4
78767;SHT31;68092;51.982;5.680;2023-03-23T01:00:50;14.6;66.9
78767;SHT31;68092;51.982;5.680;2023-03-23T01:03:19;14.6;67.3
78767;SHT31;68092;51.982;5.680;2023-03-23T01:05:53;14.6;67.2
78767;SHT31;68092;51.982;5.680;2023-03-23T01:08:23;14.6;67.2
78767;SHT31;68092;51.982;5.680;2023-03-23T01:11:03;14.6;66.4
78767;SHT31;68092;51.982;5.680;2023-03-23T01:13:33;14.6;66.5
78767;SHT31;68092;51.982;5.680;2023-03-23T01:16:04;14.6;66.4
78767;SHT31;68092;51.982;5.680;2023-03-23T01:18:33;14.5;66.6
78767;SHT31;68092;51.982;5.680;2023-03-23T01:21:07;14.5;66.3
78767;SHT31;68092;51.982;5.680;2023-03-23T01:23:39;14.5;65.9
78767;SHT31;68092;51.982;5.680;2023-03-23T01:26:10;14.5;65.9
78767;SHT31;68092;51.982;5.680;2023-03-23T01:28:41;14.5;65.9
78767;SHT31;68092;51.982;5.680;2023-03-23T01:31:12;14.5;66.1
78767;SHT31;68092;51.982;5.680;2023-03-23T01:33:43;14.5;66.1
78767;SHT31;68092;51.982;5.680;2023-03-23T01:36:15;14.5;66.0
78767;SHT31;68092;51.982;5.680;2023-03-23T01:38:47;14.5;66.2
78767;SHT31;68092;51.982;5.680;2023-03-23T01:41:19;14.6;66.1
78767;SHT31;68092;51.982;5.680;2023-03-23T01:43:57;14.6;66.0
78767;SHT31;68092;51.982;5.680;2023-03-23T01:46:30;14.6;66.1
78767;SHT31;68092;51.982;5.680;2023-03-23T01:49:05;14.6;65.7
78767;SHT31;68092;51.982;5.680;2023-03-23T01:51:41;14.6;65.7
78767;SHT31;68092;51.982;5.680;2023-03-23T01:54:16;14.6;65.8
78767;SHT31;68092;51.982;5.680;2023-03-23T01:56:54;14.6;65.5
78767;SHT31;68092;51.982;5.680;2023-03-23T01:59:26;14.6;65.6
78767;SHT31;68092;51.982;5.680;2023-03-23T02:01:57;14.6;65.6
78767;SHT31;68092;51.982;5.680;2023-03-23T02:04:30;14.6;65.6
78767;SHT31;68092;51.982;5.680;2023-03-23T02:07:00;14.6;65.5
78767;SHT31;68092;51.982;5.680;2023-03-23T02:09:30;14.6;65.7
78767;SHT31;68092;51.982;5.680;2023-03-23T02:12:00;14.6;65.9
78767;SHT31;68092;51.982;5.680;2023-03-23T02:14:31;14.6;66.0
78767;SHT31;68092;51.982;5.680;2023-03-23T02:17:05;14.6;66.1
78767;SHT31;68092;51.982;5.680;2023-03-23T02:23:49;14.5;66.6
78767;SHT31;68092;51.982;5.680;2023-03-23T02:26:33;14.5;66.5
78767;SHT31;68092;51.982;5.680;2023-03-23T02:29:14;14.6;66.5
78767;SHT31;68092;51.982;5.680;2023-03-23T02:32:43;14.6;66.1
78767;SHT31;68092;51.982;5.680;2023-03-23T02:35:20;14.6;66.3
78767;SHT31;68092;51.982;5.680;2023-03-23T02:38:01;14.6;66.2
78767;SHT31;68092;51.982;5.680;2023-03-23T02:40:37;14.6;66.3
78767;SHT31;68092;51.982;5.680;2023-03-23T02:43:13;14.6;66.4
78767;SHT31;68092;51.982;5.680;2023-03-23T02:45:45;14.6;66.4
78767;SHT31;68092;51.982;5.680;2023-03-23T02:48:22;14.6;66.3
78767;SHT31;68092;51.982;5.680;2023-03-23T02:50:55;14.6;66.2
78767;SHT31;68092;51.982;5.680;2023-03-23T02:53:29;14.6;66.3
78767;SHT31;68092;51.982;5.680;2023-03-23T02:56:03;14.6;66.2
78767;SHT31;68092;51.982;5.680;2023-03-23T02:58:34;14.7;66.3
78767;SHT31;68092;51.982;5.680;2023-03-23T03:04:13;14.7;66.1
78767;SHT31;68092;51.982;5.680;2023-03-23T03:06:54;14.7;66.1
78767;SHT31;68092;51.982;5.680;2023-03-23T03:09:37;14.7;66.1
78767;SHT31;68092;51.982;5.680;2023-03-23T03:12:14;14.7;66.4
78767;SHT31;68092;51.982;5.680;2023-03-23T03:14:51;14.7;65.7
78767;SHT31;68092;51.982;5.680;2023-03-23T03:17:26;14.7;65.9
78767;SHT31;68092;51.982;5.680;2023-03-23T03:20:05;14.7;65.6
78767;SHT31;68092;51.982;5.680;2023-03-23T03:22:41;14.7;65.1
78767;SHT31;68092;51.982;5.680;2023-03-23T03:25:14;14.7;65.3
78767;SHT31;68092;51.982;5.680;2023-03-23T03:27:51;14.7;65.2
78767;SHT31;68092;51.982;5.680;2023-03-23T03:30:27;14.7;65.0
78767;SHT31;68092;51.982;5.680;2023-03-23T03:32:59;14.8;64.5
78767;SHT31;68092;51.982;5.680;2023-03-23T03:35:30;14.8;64.6
78767;SHT31;68092;51.982;5.680;2023-03-23T03:38:06;14.8;64.4
78767;SHT31;68092;51.982;5.680;2023-03-23T03:40:39;14.8;64.4
78767;SHT31;68092;51.982;5.680;2023-03-23T03:43:09;14.8;64.5
78767;SHT31;68092;51.982;5.680;2023-03-23T03:45:39;14.8;64.4
78767;SHT31;68092;51.982;5.680;2023-03-23T03:48:13;14.8;64.4
78767;SHT31;68092;51.982;5.680;2023-03-23T03:50:43;14.8;64.4
78767;SHT31;68092;51.982;5.680;2023-03-23T03:53:14;14.8;64.2
78767;SHT31;68092;51.982;5.680;2023-03-23T03:55:44;14.8;64.4
78767;SHT31;68092;51.982;5.680;2023-03-23T03:58:16;14.8;64.5
78767;SHT31;68092;51.982;5.680;2023-03-23T04:00:46;14.8;64.7
78767;SHT31;68092;51.982;5.680;2023-03-23T04:03:16;14.8;64.7
78767;SHT31;68092;51.982;5.680;2023-03-23T04:05:45;14.9;64.4
78767;SHT31;68092;51.982;5.680;2023-03-23T04:08:15;14.9;64.4
78767;SHT31;68092;51.982;5.680;2023-03-23T04:10:47;14.9;64.2
78767;SHT31;68092;51.982;5.680;2023-03-23T04:13:17;14.9;64.6
78767;SHT31;68092;51.982;5.680;2023-03-23T04:15:47;14.9;63.9
78767;SHT31;68092;51.982;5.680;2023-03-23T04:18:19;14.9;63.8
78767;SHT31;68092;51.982;5.680;2023-03-23T04:20:50;14.9;63.8
78767;SHT31;68092;51.982;5.680;2023-03-23T04:23:20;14.9;63.5
78767;SHT31;68092;51.982;5.680;2023-03-23T04:25:53;14.9;63.4
78767;SHT31;68092;51.982;5.680;2023-03-23T04:28:27;14.9;63.5
78767;SHT31;68092;51.982;5.680;2023-03-23T04:30:57;14.9;63.3
78767;SHT31;68092;51.982;5.680;2023-03-23T04:33:29;14.9;63.0
78767;SHT31;68092;51.982;5.680;2023-03-23T04:36:01;14.9;63.2
78767;SHT31;68092;51.982;5.680;2023-03-23T04:38:31;14.9;63.5
78767;SHT31;68092;51.982;5.680;2023-03-23T04:41:01;14.9;63.1
78767;SHT31;68092;51.982;5.680;2023-03-23T04:43:31;15.0;63.0
78767;SHT31;68092;51.982;5.680;2023-03-23T04:46:07;15.0;62.8
78767;SHT31;68092;51.982;5.680;2023-03-23T04:48:37;15.0;62.7
78767;SHT31;68092;51.982;5.680;2023-03-23T04:51:07;14.9;62.8
78767;SHT31;68092;51.982;5.680;2023-03-23T04:53:36;14.9;62.5
78767;SHT31;68092;51.982;5.680;2023-03-23T04:56:07;14.9;62.6
78767;SHT31;68092;51.982;5.680;2023-03-23T04:58:37;14.9;62.3
78767;SHT31;68092;51.982;5.680;2023-03-23T05:01:07;14.9;62.2
78767;SHT31;68092;51.982;5.680;2023-03-23T05:03:36;14.9;62.2
78767;SHT31;68092;51.982;5.680;2023-03-23T05:06:09;14.9;62.2
78767;SHT31;68092;51.982;5.680;2023-03-23T05:08:38;14.9;62.0
78767;SHT31;68092;51.982;5.680;2023-03-23T05:11:08;14.9;62.1
78767;SHT31;68092;51.982;5.680;2023-03-23T05:13:38;14.9;62.3
78767;SHT31;68092;51.982;5.680;2023-03-23T05:16:08;14.9;61.9
78767;SHT31;68092;51.982;5.680;2023-03-23T05:18:38;14.9;61.9
78767;SHT31;68092;51.982;5.680;2023-03-23T05:21:10;14.9;61.4
78767;SHT31;68092;51.982;5.680;2023-03-23T05:23:39;14.9;62.0
78767;SHT31;68092;51.982;5.680;2023-03-23T05:26:09;14.9;62.0
78767;SHT31;68092;51.982;5.680;2023-03-23T05:28:39;14.9;61.9
78767;SHT31;68092;51.982;5.680;2023-03-23T05:31:09;14.9;61.7
78767;SHT31;68092;51.982;5.680;2023-03-23T05:33:40;14.9;61.6
78767;SHT31;68092;51.982;5.680;2023-03-23T05:36:10;14.9;62.0
78767;SHT31;68092;51.982;5.680;2023-03-23T05:38:40;14.9;61.7
78767;SHT31;68092;51.982;5.680;2023-03-23T05:41:12;14.9;62.1
78767;SHT31;68092;51.982;5.680;2023-03-23T05:43:42;14.9;62.0
78767;SHT31;68092;51.982;5.680;2023-03-23T05:46:12;14.9;61.9
78767;SHT31;68092;51.982;5.680;2023-03-23T05:48:42;14.9;62.2
78767;SHT31;68092;51.982;5.680;2023-03-23T05:51:12;14.9;61.9
78767;SHT31;68092;51.982;5.680;2023-03-23T05:53:41;14.9;62.0
78767;SHT31;68092;51.982;5.680;2023-03-23T05:56:11;14.9;62.2
78767;SHT31;68092;51.982;5.680;2023-03-23T05:58:41;14.9;62.1
78767;SHT31;68092;51.982;5.680;2023-03-23T06:01:11;14.9;62.1
78767;SHT31;68092;51.982;5.680;2023-03-23T06:03:42;14.9;62.2
78767;SHT31;68092;51.982;5.680;2023-03-23T06:06:13;14.9;62.1
78767;SHT31;68092;51.982;5.680;2023-03-23T06:08:43;14.9;62.4
78767;SHT31;68092;51.982;5.680;2023-03-23T06:11:12;14.9;62.3
78767;SHT31;68092;51.982;5.680;2023-03-23T06:13:43;14.9;62.3
78767;SHT31;68092;51.982;5.680;2023-03-23T06:16:13;14.9;62.5
78767;SHT31;68092;51.982;5.680;2023-03-23T06:18:43;14.9;62.6
78767;SHT31;68092;51.982;5.680;2023-03-23T06:21:12;14.9;62.3
78767;SHT31;68092;51.982;5.680;2023-03-23T06:23:42;14.9;62.2
78767;SHT31;68092;51.982;5.680;2023-03-23T06:26:14;14.9;62.6
78767;SHT31;68092;51.982;5.680;2023-03-23T06:28:48;14.9;62.3
78767;SHT31;68092;51.982;5.680;2023-03-23T06:31:18;14.9;62.2
78767;SHT31;68092;51.982;5.680;2023-03-23T06:33:48;14.9;62.2
78767;SHT31;68092;51.982;5.680;2023-03-23T06:36:18;14.9;62.5
78767;SHT31;68092;51.982;5.680;2023-03-23T06:38:48;14.9;62.3
78767;SHT31;68092;51.982;5.680;2023-03-23T06:41:18;15.0;62.3
78767;SHT31;68092;51.982;5.680;2023-03-23T06:43:47;15.0;62.2
78767;SHT31;68092;51.982;5.680;2023-03-23T06:46:17;15.0;62.0
78767;SHT31;68092;51.982;5.680;2023-03-23T06:48:48;15.0;62.2
78767;SHT31;68092;51.982;5.680;2023-03-23T06:51:18;15.0;62.2
78767;SHT31;68092;51.982;5.680;2023-03-23T06:53:51;15.0;62.3
78767;SHT31;68092;51.982;5.680;2023-03-23T06:56:23;15.0;62.2
78767;SHT31;68092;51.982;5.680;2023-03-23T06:58:54;15.0;62.1
78767;SHT31;68092;51.982;5.680;2023-03-23T07:01:23;15.0;62.3
78767;SHT31;68092;51.982;5.680;2023-03-23T07:03:54;15.0;62.0
78767;SHT31;68092;51.982;5.680;2023-03-23T07:06:25;15.0;62.3
78767;SHT31;68092;51.982;5.680;2023-03-23T07:08:55;15.0;62.3
78767;SHT31;68092;51.982;5.680;2023-03-23T07:11:26;15.0;62.3
78767;SHT31;68092;51.982;5.680;2023-03-23T07:13:55;15.0;62.5
78767;SHT31;68092;51.982;5.680;2023-03-23T07:16:25;15.0;62.4
78767;SHT31;68092;51.982;5.680;2023-03-23T07:18:55;15.0;62.3
78767;SHT31;68092;51.982;5.680;2023-03-23T07:21:25;15.0;62.7
78767;SHT31;68092;51.982;5.680;2023-03-23T07:23:54;15.0;62.6
78767;SHT31;68092;51.982;5.680;2023-03-23T07:26:24;15.0;62.8
78767;SHT31;68092;51.982;5.680;2023-03-23T07:28:53;15.0;62.4
78767;SHT31;68092;51.982;5.680;2023-03-23T07:31:25;15.0;62.5
78767;SHT31;68092;51.982;5.680;2023-03-23T07:33:54;15.0;62.7
78767;SHT31;68092;51.982;5.680;2023-03-23T07:36:24;15.0;62.7
78767;SHT31;68092;51.982;5.680;2023-03-23T07:38:55;15.0;62.5
78767;SHT31;68092;51.982;5.680;2023-03-23T07:41:25;15.0;62.9
78767;SHT31;68092;51.982;5.680;2023-03-23T07:43:56;15.0;62.8
78767;SHT31;68092;51.982;5.680;2023-03-23T07:46:27;15.1;62.2
78767;SHT31;68092;51.982;5.680;2023-03-23T07:48:57;15.1;61.7
78767;SHT31;68092;51.982;5.680;2023-03-23T07:51:27;15.1;62.2
78767;SHT31;68092;51.982;5.680;2023-03-23T07:53:57;15.1;62.5
78767;SHT31;68092;51.982;5.680;2023-03-23T07:56:29;15.0;63.0
78767;SHT31;68092;51.982;5.680;2023-03-23T07:58:59;15.0;63.1
78767;SHT31;68092;51.982;5.680;2023-03-23T08:01:30;15.0;63.2
78767;SHT31;68092;51.982;5.680;2023-03-23T08:04:00;15.0;63.8
78767;SHT31;68092;51.982;5.680;2023-03-23T08:06:34;14.9;64.0
78767;SHT31;68092;51.982;5.680;2023-03-23T08:09:03;14.9;64.0
78767;SHT31;68092;51.982;5.680;2023-03-23T08:11:35;14.8;64.5
78767;SHT31;68092;51.982;5.680;2023-03-23T08:14:05;14.8;65.2
78767;SHT31;68092;51.982;5.680;2023-03-23T08:16:37;14.8;65.9
78767;SHT31;68092;51.982;5.680;2023-03-23T08:19:06;14.7;66.2
78767;SHT31;68092;51.982;5.680;2023-03-23T08:21:36;14.7;66.9
78767;SHT31;68092;51.982;5.680;2023-03-23T08:24:10;14.7;66.3
78767;SHT31;68092;51.982;5.680;2023-03-23T08:26:40;14.7;66.6
78767;SHT31;68092;51.982;5.680;2023-03-23T08:29:10;14.6;66.9
78767;SHT31;68092;51.982;5.680;2023-03-23T08:31:41;14.6;66.8
78767;SHT31;68092;51.982;5.680;2023-03-23T08:34:12;14.7;67.1
78767;SHT31;68092;51.982;5.680;2023-03-23T08:36:43;14.7;66.3
78767;SHT31;68092;51.982;5.680;2023-03-23T08:39:14;14.7;66.8
78767;SHT31;68092;51.982;5.680;2023-03-23T08:41:45;14.7;66.2
78767;SHT31;68092;51.982;5.680;2023-03-23T08:44:15;14.7;65.9
78767;SHT31;68092;51.982;5.680;2023-03-23T08:46:46;14.8;65.1
78767;SHT31;68092;51.982;5.680;2023-03-23T08:49:17;14.8;65.3
78767;SHT31;68092;51.982;5.680;2023-03-23T08:51:48;14.8;65.3
78767;SHT31;68092;51.982;5.680;2023-03-23T08:54:19;14.8;64.9
78767;SHT31;68092;51.982;5.680;2023-03-23T08:56:49;14.8;64.8
78767;SHT31;68092;51.982;5.680;2023-03-23T08:59:18;14.8;63.5
78767;SHT31;68092;51.982;5.680;2023-03-23T09:01:48;14.9;63.8
78767;SHT31;68092;51.982;5.680;2023-03-23T09:04:20;14.9;63.6
78767;SHT31;68092;51.982;5.680;2023-03-23T09:06:50;14.9;63.5
78767;SHT31;68092;51.982;5.680;2023-03-23T09:09:20;14.9;63.2
78767;SHT31;68092;51.982;5.680;2023-03-23T09:11:52;14.9;63.3
78767;SHT31;68092;51.982;5.680;2023-03-23T09:14:22;14.9;63.4
78767;SHT31;68092;51.982;5.680;2023-03-23T09:16:53;14.9;62.5
78767;SHT31;68092;51.982;5.680;2023-03-23T09:19:22;14.9;62.3
78767;SHT31;68092;51.982;5.680;2023-03-23T09:21:52;14.9;61.5
78767;SHT31;68092;51.982;5.680;2023-03-23T09:24:22;14.9;63.4
78767;SHT31;68092;51.982;5.680;2023-03-23T09:26:53;14.9;63.5
78767;SHT31;68092;51.982;5.680;2023-03-23T09:29:23;14.9;62.5
78767;SHT31;68092;51.982;5.680;2023-03-23T09:31:52;15.0;61.6
78767;SHT31;68092;51.982;5.680;2023-03-23T09:34:23;15.0;60.9
78767;SHT31;68092;51.982;5.680;2023-03-23T09:36:53;15.0;62.1
78767;SHT31;68092;51.982;5.680;2023-03-23T09:39:22;15.0;61.3
78767;SHT31;68092;51.982;5.680;2023-03-23T09:42:10;15.1;62.0
78767;SHT31;68092;51.982;5.680;2023-03-23T09:44:48;15.1;61.0
78767;SHT31;68092;51.982;5.680;2023-03-23T09:47:33;15.2;60.6
78767;SHT31;68092;51.982;5.680;2023-03-23T09:50:09;15.2;60.5
78767;SHT31;68092;51.982;5.680;2023-03-23T09:52:50;15.3;60.6
78767;SHT31;68092;51.982;5.680;2023-03-23T09:55:22;15.3;60.0
78767;SHT31;68092;51.982;5.680;2023-03-23T09:58:00;15.4;60.0
78767;SHT31;68092;51.982;5.680;2023-03-23T10:00:35;15.4;59.3
78767;SHT31;68092;51.982;5.680;2023-03-23T10:03:14;15.5;59.6
78767;SHT31;68092;51.982;5.680;2023-03-23T10:05:48;15.6;60.4
78767;SHT31;68092;51.982;5.680;2023-03-23T10:08:22;15.7;59.7
78767;SHT31;68092;51.982;5.680;2023-03-23T10:11:03;15.8;58.8
78767;SHT31;68092;51.982;5.680;2023-03-23T10:13:47;15.9;57.6
78767;SHT31;68092;51.982;5.680;2023-03-23T10:16:25;16.0;57.5
78767;SHT31;68092;51.982;5.680;2023-03-23T10:19:01;16.1;57.8
78767;SHT31;68092;51.982;5.680;2023-03-23T10:21:37;16.3;59.9
78767;SHT31;68092;51.982;5.680;2023-03-23T10:24:11;16.4;57.9
78767;SHT31;68092;51.982;5.680;2023-03-23T10:26:48;16.6;55.8
78767;SHT31;68092;51.982;5.680;2023-03-23T10:29:26;16.7;55.0
78767;SHT31;68092;51.982;5.680;2023-03-23T10:32:01;16.8;54.8
78767;SHT31;68092;51.982;5.680;2023-03-23T10:34:42;16.8;54.7
78767;SHT31;68092;51.982;5.680;2023-03-23T10:37:17;16.9;54.3
78767;SHT31;68092;51.982;5.680;2023-03-23T10:39:51;17.0;55.0
78767;SHT31;68092;51.982;5.680;2023-03-23T10:42:30;17.0;54.6
78767;SHT31;68092;51.982;5.680;2023-03-23T10:45:14;17.2;53.3
78767;SHT31;68092;51.982;5.680;2023-03-23T10:47:54;17.3;53.8
78767;SHT31;68092;51.982;5.680;2023-03-23T10:50:31;17.4;52.6
78767;SHT31;68092;51.982;5.680;2023-03-23T10:53:07;17.4;51.7
78767;SHT31;68092;51.982;5.680;2023-03-23T10:55:40;17.5;51.2
78767;SHT31;68092;51.982;5.680;2023-03-23T10:58:21;17.5;49.0
78767;SHT31;68092;51.982;5.680;2023-03-23T11:00:47;17.5;49.5
78767;SHT31;68092;51.982;5.680;2023-03-23T11:03:37;17.5;49.7
78767;SHT31;68092;51.982;5.680;2023-03-23T11:06:10;17.6;49.3
78767;SHT31;68092;51.982;5.680;2023-03-23T11:08:52;17.7;50.0
78767;SHT31;68092;51.982;5.680;2023-03-23T11:11:27;17.8;47.6
78767;SHT31;68092;51.982;5.680;2023-03-23T11:14:00;17.8;47.0
78767;SHT31;68092;51.982;5.680;2023-03-23T11:16:33;17.9;47.5
78767;SHT31;68092;51.982;5.680;2023-03-23T11:19:14;17.9;50.5
78767;SHT31;68092;51.982;5.680;2023-03-23T11:21:50;18.0;48.8
78767;SHT31;68092;51.982;5.680;2023-03-23T11:24:26;18.0;49.3
78767;SHT31;68092;51.982;5.680;2023-03-23T11:26:57;18.1;49.4
78767;SHT31;68092;51.982;5.680;2023-03-23T11:29:30;18.1;47.1
78767;SHT31;68092;51.982;5.680;2023-03-23T11:32:12;18.1;47.8
78767;SHT31;68092;51.982;5.680;2023-03-23T11:34:47;18.0;48.8
78767;SHT31;68092;51.982;5.680;2023-03-23T11:37:27;18.0;48.6
78767;SHT31;68092;51.982;5.680;2023-03-23T11:40:00;18.0;49.2
78767;SHT31;68092;51.982;5.680;2023-03-23T11:42:41;18.0;49.3
78767;SHT31;68092;51.982;5.680;2023-03-23T11:45:21;18.0;50.0
78767;SHT31;68092;51.982;5.680;2023-03-23T11:47:59;18.0;50.3
78767;SHT31;68092;51.982;5.680;2023-03-23T11:50:34;18.1;49.8
78767;SHT31;68092;51.982;5.680;2023-03-23T11:53:12;18.1;48.2
78767;SHT31;68092;51.982;5.680;2023-03-23T11:55:58;18.1;48.9
78767;SHT31;68092;51.982;5.680;2023-03-23T11:58:31;18.1;48.9
78767;SHT31;68092;51.982;5.680;2023-03-23T12:01:09;18.1;49.2
78767;SHT31;68092;51.982;5.680;2023-03-23T12:03:56;18.2;47.5
78767;SHT31;68092;51.982;5.680;2023-03-23T12:06:35;18.2;47.3
78767;SHT31;68092;51.982;5.680;2023-03-23T12:09:21;18.2;48.2
78767;SHT31;68092;51.982;5.680;2023-03-23T12:12:07;18.3;47.0
78767;SHT31;68092;51.982;5.680;2023-03-23T12:14:44;18.3;46.6
78767;SHT31;68092;51.982;5.680;2023-03-23T12:17:25;18.3;46.3
78767;SHT31;68092;51.982;5.680;2023-03-23T12:20:15;18.3;47.4
78767;SHT31;68092;51.982;5.680;2023-03-23T12:22:56;18.3;48.5
78767;SHT31;68092;51.982;5.680;2023-03-23T12:26:37;18.3;52.5
78767;SHT31;68092;51.982;5.680;2023-03-23T12:29:28;18.3;51.9
78767;SHT31;68092;51.982;5.680;2023-03-23T12:32:19;18.2;53.7
78767;SHT31;68092;51.982;5.680;2023-03-23T12:34:57;18.1;52.8
78767;SHT31;68092;51.982;5.680;2023-03-23T12:37:43;18.1;54.0
78767;SHT31;68092;51.982;5.680;2023-03-23T12:41:03;18.0;54.4
78767;SHT31;68092;51.982;5.680;2023-03-23T12:43:50;17.9;54.9
78767;SHT31;68092;51.982;5.680;2023-03-23T12:46:41;17.8;53.2
78767;SHT31;68092;51.982;5.680;2023-03-23T12:49:19;17.7;53.9
78767;SHT31;68092;51.982;5.680;2023-03-23T12:51:57;17.6;57.4
78767;SHT31;68092;51.982;5.680;2023-03-23T12:54:35;17.5;56.4
78767;SHT31;68092;51.982;5.680;2023-03-23T12:57:11;17.4;57.1
78767;SHT31;68092;51.982;5.680;2023-03-23T12:59:48;17.4;56.4
78767;SHT31;68092;51.982;5.680;2023-03-23T13:02:25;17.3;56.9
78767;SHT31;68092;51.982;5.680;2023-03-23T13:05:03;17.2;57.4
78767;SHT31;68092;51.982;5.680;2023-03-23T13:07:44;17.2;56.7
78767;SHT31;68092;51.982;5.680;2023-03-23T13:10:21;17.2;57.7
78767;SHT31;68092;51.982;5.680;2023-03-23T13:12:54;17.1;55.8
78767;SHT31;68092;51.982;5.680;2023-03-23T13:15:31;17.1;55.8
78767;SHT31;68092;51.982;5.680;2023-03-23T13:18:10;17.1;59.7
78767;SHT31;68092;51.982;5.680;2023-03-23T13:20:53;17.1;56.5
78767;SHT31;68092;51.982;5.680;2023-03-23T13:23:28;17.1;56.2
78767;SHT31;68092;51.982;5.680;2023-03-23T13:26:00;17.1;58.8
78767;SHT31;68092;51.982;5.680;2023-03-23T13:28:44;17.2;62.3
78767;SHT31;68092;51.982;5.680;2023-03-23T13:31:15;17.4;55.2
78767;SHT31;68092;51.982;5.680;2023-03-23T13:33:50;17.6;56.6
78767;SHT31;68092;51.982;5.680;2023-03-23T13:36:29;17.8;55.6
78767;SHT31;68092;51.982;5.680;2023-03-23T13:39:02;18.0;52.7
78767;SHT31;68092;51.982;5.680;2023-03-23T13:41:47;18.1;54.3
78767;SHT31;68092;51.982;5.680;2023-03-23T13:44:23;18.2;52.2
78767;SHT31;68092;51.982;5.680;2023-03-23T13:47:14;18.3;51.5
78767;SHT31;68092;51.982;5.680;2023-03-23T13:49:51;18.4;51.7
78767;SHT31;68092;51.982;5.680;2023-03-23T13:52:35;18.4;51.2
78767;SHT31;68092;51.982;5.680;2023-03-23T13:55:30;18.4;50.6
78767;SHT31;68092;51.982;5.680;2023-03-23T13:58:12;18.4;50.9
78767;SHT31;68092;51.982;5.680;2023-03-23T14:00:50;18.4;51.0
78767;SHT31;68092;51.982;5.680;2023-03-23T14:03:38;18.4;53.8
78767;SHT31;68092;51.982;5.680;2023-03-23T14:06:13;18.4;52.8
78767;SHT31;68092;51.982;5.680;2023-03-23T14:08:47;18.4;53.9
78767;SHT31;68092;51.982;5.680;2023-03-23T14:11:21;18.3;52.6
78767;SHT31;68092;51.982;5.680;2023-03-23T14:14:01;18.3;52.8
78767;SHT31;68092;51.982;5.680;2023-03-23T14:16:39;18.3;52.7
78767;SHT31;68092;51.982;5.680;2023-03-23T14:19:23;18.3;53.1
78767;SHT31;68092;51.982;5.680;2023-03-23T14:21:55;18.2;54.2
78767;SHT31;68092;51.982;5.680;2023-03-23T14:24:27;18.1;53.1
78767;SHT31;68092;51.982;5.680;2023-03-23T14:27:13;18.1;53.2
78767;SHT31;68092;51.982;5.680;2023-03-23T14:29:45;18.0;53.4
78767;SHT31;68092;51.982;5.680;2023-03-23T14:32:17;17.9;51.5
78767;SHT31;68092;51.982;5.680;2023-03-23T14:34:50;17.9;52.3
78767;SHT31;68092;51.982;5.680;2023-03-23T14:37:21;17.8;53.7
78767;SHT31;68092;51.982;5.680;2023-03-23T14:39:54;17.8;53.8
78767;SHT31;68092;51.982;5.680;2023-03-23T14:42:29;17.9;53.5
78767;SHT31;68092;51.982;5.680;2023-03-23T14:45:01;18.0;52.6
78767;SHT31;68092;51.982;5.680;2023-03-23T14:47:38;18.1;52.5
78767;SHT31;68092;51.982;5.680;2023-03-23T14:50:23;18.2;54.0
78767;SHT31;68092;51.982;5.680;2023-03-23T14:52:55;18.4;50.7
78767;SHT31;68092;51.982;5.680;2023-03-23T14:55:25;18.6;52.1
78767;SHT31;68092;51.982;5.680;2023-03-23T14:58:08;18.8;52.3
78767;SHT31;68092;51.982;5.680;2023-03-23T15:00:41;19.0;50.4
78767;SHT31;68092;51.982;5.680;2023-03-23T15:03:15;19.2;49.1
78767;SHT31;68092;51.982;5.680;2023-03-23T15:05:49;19.3;47.8
78767;SHT31;68092;51.982;5.680;2023-03-23T15:08:24;19.5;48.2
78767;SHT31;68092;51.982;5.680;2023-03-23T15:11:05;19.6;46.0
78767;SHT31;68092;51.982;5.680;2023-03-23T15:13:42;19.7;44.7
78767;SHT31;68092;51.982;5.680;2023-03-23T15:16:21;19.8;45.6
78767;SHT31;68092;51.982;5.680;2023-03-23T15:18:54;19.8;44.7
78767;SHT31;68092;51.982;5.680;2023-03-23T15:21:28;19.9;45.2
78767;SHT31;68092;51.982;5.680;2023-03-23T15:24:02;19.9;45.2
78767;SHT31;68092;51.982;5.680;2023-03-23T15:26:43;19.9;46.3
78767;SHT31;68092;51.982;5.680;2023-03-23T15:29:19;20.0;45.4
78767;SHT31;68092;51.982;5.680;2023-03-23T15:31:53;20.0;46.5
78767;SHT31;68092;51.982;5.680;2023-03-23T15:34:30;20.1;44.4
78767;SHT31;68092;51.982;5.680;2023-03-23T15:37:03;20.2;43.9
78767;SHT31;68092;51.982;5.680;2023-03-23T15:39:33;20.2;44.4
78767;SHT31;68092;51.982;5.680;2023-03-23T15:42:04;20.2;44.4
78767;SHT31;68092;51.982;5.680;2023-03-23T15:44:34;20.2;43.9
78767;SHT31;68092;51.982;5.680;2023-03-23T15:47:14;20.2;44.6
78767;SHT31;68092;51.982;5.680;2023-03-23T15:49:45;20.2;44.9
78767;SHT31;68092;51.982;5.680;2023-03-23T15:52:17;20.2;44.8
78767;SHT31;68092;51.982;5.680;2023-03-23T15:54:49;20.2;45.0
78767;SHT31;68092;51.982;5.680;2023-03-23T15:57:19;20.2;44.5
78767;SHT31;68092;51.982;5.680;2023-03-23T15:59:48;20.1;45.0
78767;SHT31;68092;51.982;5.680;2023-03-23T16:02:24;20.1;45.2
78767;SHT31;68092;51.982;5.680;2023-03-23T16:04:53;20.1;45.5
78767;SHT31;68092;51.982;5.680;2023-03-23T16:07:23;20.1;45.3
78767;SHT31;68092;51.982;5.680;2023-03-23T16:09:53;20.1;45.4
78767;SHT31;68092;51.982;5.680;2023-03-23T16:12:24;20.1;46.8
78767;SHT31;68092;51.982;5.680;2023-03-23T16:14:54;20.1;47.0
78767;SHT31;68092;51.982;5.680;2023-03-23T16:17:25;20.1;47.0
78767;SHT31;68092;51.982;5.680;2023-03-23T16:19:59;20.0;46.5
78767;SHT31;68092;51.982;5.680;2023-03-23T16:22:31;20.0;45.9
78767;SHT31;68092;51.982;5.680;2023-03-23T16:25:00;20.0;45.8
78767;SHT31;68092;51.982;5.680;2023-03-23T16:27:33;19.9;44.9
78767;SHT31;68092;51.982;5.680;2023-03-23T16:30:15;19.8;45.2
78767;SHT31;68092;51.982;5.680;2023-03-23T16:32:45;19.7;45.0
78767;SHT31;68092;51.982;5.680;2023-03-23T16:35:16;19.6;45.8
78767;SHT31;68092;51.982;5.680;2023-03-23T16:37:47;19.6;45.9
78767;SHT31;68092;51.982;5.680;2023-03-23T16:40:19;19.5;46.2
78767;SHT31;68092;51.982;5.680;2023-03-23T16:42:51;19.4;47.0
78767;SHT31;68092;51.982;5.680;2023-03-23T16:45:21;19.3;46.9
78767;SHT31;68092;51.982;5.680;2023-03-23T16:47:55;19.2;47.4
78767;SHT31;68092;51.982;5.680;2023-03-23T16:50:28;19.1;47.0
78767;SHT31;68092;51.982;5.680;2023-03-23T16:52:59;19.1;47.0